createdAt,value
2022-10-24T00:01:39.737Z,1.00
2022-10-24T00:04:38.141Z,1.00
2022-10-24T00:07:35.090Z,3.00
2022-10-24T00:10:32.226Z,2.00
2022-10-24T00:13:29.023Z,0.80
2022-10-24T00:16:27.126Z,1.60
2022-10-24T00:19:23.811Z,1.00
2022-10-24T00:22:21.300Z,2.00
2022-10-24T00:25:18.260Z,1.00
2022-10-24T00:28:15.037Z,1.00
2022-10-24T00:31:17.091Z,2.00
2022-10-24T00:34:14.166Z,2.00
2022-10-24T00:37:11.131Z,1.00
2022-10-24T00:40:08.842Z,1.00
2022-10-24T00:43:17.090Z,2.00
2022-10-24T00:46:14.138Z,2.00
2022-10-24T00:49:13.516Z,1.20
2022-10-24T00:52:10.670Z,1.00
2022-10-24T00:55:08.343Z,1.00
2022-10-24T00:58:05.473Z,1.00
2022-10-24T01:01:03.364Z,2.00
2022-10-24T01:04:01.019Z,0.00
2022-10-24T01:07:06.850Z,2.00
2022-10-24T01:10:33.278Z,1.00
2022-10-24T01:13:57.962Z,1.00
2022-10-24T01:17:04.128Z,2.00
2022-10-24T01:20:23.867Z,1.00
2022-10-24T01:23:27.673Z,2.00
2022-10-24T01:26:31.011Z,0.80
2022-10-24T01:30:03.277Z,1.80
2022-10-24T01:33:15.972Z,1.00
2022-10-24T01:36:16.279Z,2.00
2022-10-24T01:39:15.337Z,2.60
2022-10-24T01:42:11.989Z,2.00
2022-10-24T01:45:10.202Z,2.40
2022-10-24T01:48:08.303Z,2.00
2022-10-24T01:51:04.854Z,1.60
2022-10-24T01:54:02.021Z,1.20
2022-10-24T01:56:59.050Z,2.00
2022-10-24T01:59:56.197Z,1.40
2022-10-24T02:03:34.468Z,1.80
2022-10-24T02:06:34.667Z,2.00
2022-10-24T02:09:31.814Z,1.60
2022-10-24T02:12:29.369Z,1.60
2022-10-24T02:15:28.993Z,2.40
2022-10-24T02:18:26.946Z,1.80
2022-10-24T02:21:35.841Z,1.40
2022-10-24T02:25:02.242Z,1.00
2022-10-24T02:28:22.921Z,1.00
2022-10-24T02:31:22.099Z,2.00
2022-10-24T02:34:18.751Z,1.00
2022-10-24T02:37:16.238Z,1.60
2022-10-24T02:40:13.234Z,2.80
2022-10-24T02:43:10.078Z,1.00
2022-10-24T02:46:07.107Z,1.60
2022-10-24T02:49:04.123Z,2.40
2022-10-24T02:52:01.070Z,1.40
2022-10-24T02:54:58.212Z,2.00
2022-10-24T02:57:55.241Z,2.00
2022-10-24T03:00:52.096Z,1.20
2022-10-24T03:03:49.201Z,2.00
2022-10-24T03:06:46.265Z,3.00
2022-10-24T03:09:43.105Z,3.00
2022-10-24T03:12:40.181Z,2.80
2022-10-24T03:15:37.135Z,2.40
2022-10-24T03:18:33.861Z,2.00
2022-10-24T03:21:31.289Z,1.60
2022-10-24T03:24:43.311Z,2.80
2022-10-24T03:27:42.067Z,1.00
2022-10-24T03:30:38.865Z,3.00
2022-10-24T03:33:36.171Z,2.00
2022-10-24T03:36:33.060Z,2.00
2022-10-24T03:39:29.977Z,2.20
2022-10-24T03:42:26.927Z,2.60
2022-10-24T03:45:23.927Z,2.00
2022-10-24T03:48:21.031Z,3.00
2022-10-24T03:51:18.342Z,3.00
2022-10-24T03:54:15.406Z,2.00
2022-10-24T03:57:12.474Z,1.20
2022-10-24T04:00:09.966Z,1.60
2022-10-24T04:03:07.468Z,2.20
2022-10-24T04:06:04.493Z,2.40
2022-10-24T04:09:00.873Z,2.00
2022-10-24T04:11:58.362Z,1.80
2022-10-24T04:14:55.008Z,1.20
2022-10-24T04:17:51.918Z,1.60
2022-10-24T04:20:48.929Z,1.00
2022-10-24T04:23:46.575Z,2.80
2022-10-24T04:26:44.273Z,1.00
2022-10-24T04:29:41.056Z,2.40
2022-10-24T04:32:38.238Z,3.00
2022-10-24T04:35:35.147Z,2.00
2022-10-24T04:38:33.463Z,2.40
2022-10-24T04:41:31.126Z,1.60
2022-10-24T04:44:28.351Z,3.00
2022-10-24T04:47:25.039Z,2.00
2022-10-24T04:50:22.047Z,2.20
2022-10-24T04:53:18.831Z,3.00
2022-10-24T04:56:16.129Z,3.00
2022-10-24T04:59:13.219Z,2.20
2022-10-24T05:02:10.445Z,2.40
2022-10-24T05:05:07.344Z,2.00
2022-10-24T05:08:04.031Z,3.00
2022-10-24T05:11:01.365Z,3.40
2022-10-24T05:13:58.281Z,3.00
2022-10-24T05:16:55.040Z,1.00
2022-10-24T05:19:51.974Z,2.60
2022-10-24T05:22:49.264Z,2.60
2022-10-24T05:25:46.471Z,2.40
2022-10-24T05:28:43.199Z,2.40
2022-10-24T05:31:40.073Z,2.00
2022-10-24T05:34:37.237Z,1.00
2022-10-24T05:37:34.302Z,1.60
2022-10-24T05:40:30.879Z,2.00
2022-10-24T05:43:28.268Z,2.00
2022-10-24T05:46:25.226Z,2.00
2022-10-24T05:49:22.099Z,2.00
2022-10-24T05:52:19.128Z,1.00
2022-10-24T05:55:18.118Z,2.00
2022-10-24T05:58:20.943Z,1.00
2022-10-24T06:01:18.273Z,2.00
2022-10-24T06:04:15.323Z,2.00
2022-10-24T06:07:12.242Z,1.80
2022-10-24T06:10:09.327Z,1.00
2022-10-24T06:13:06.477Z,2.00
2022-10-24T06:16:05.822Z,1.40
2022-10-24T06:19:03.408Z,2.00
2022-10-24T06:22:00.289Z,1.00
2022-10-24T06:24:57.381Z,2.00
2022-10-24T06:27:54.089Z,2.80
2022-10-24T06:30:51.695Z,2.00
2022-10-24T06:33:49.505Z,2.00
2022-10-24T06:36:46.127Z,2.00
2022-10-24T06:39:42.932Z,1.40
2022-10-24T06:42:40.413Z,2.00
2022-10-24T06:45:40.382Z,2.00
2022-10-24T06:48:37.050Z,2.00
2022-10-24T06:51:34.419Z,2.00
2022-10-24T06:54:32.141Z,1.00
2022-10-24T06:57:29.154Z,1.00
2022-10-24T07:03:23.282Z,1.00
2022-10-24T07:06:25.185Z,1.20
2022-10-24T07:09:22.389Z,1.00
2022-10-24T07:15:17.185Z,1.40
2022-10-24T07:18:15.889Z,0.80
2022-10-24T07:21:18.610Z,1.00
2022-10-24T07:24:15.209Z,0.40
2022-10-24T07:27:12.365Z,1.00
2022-10-24T07:30:13.249Z,1.40
2022-10-24T07:33:10.486Z,1.00
2022-10-24T07:36:08.030Z,1.00
2022-10-24T07:39:05.262Z,1.00
2022-10-24T07:42:02.042Z,0.00
2022-10-24T07:44:59.467Z,1.00
2022-10-24T07:47:56.504Z,1.00
2022-10-24T07:50:54.381Z,2.00
2022-10-24T07:53:51.565Z,2.00
2022-10-24T07:56:48.419Z,2.00
2022-10-24T07:59:45.284Z,2.00
2022-10-24T08:02:42.390Z,0.00
2022-10-24T08:05:40.603Z,1.00
2022-10-24T08:08:37.973Z,0.20
2022-10-24T08:11:35.475Z,0.40
2022-10-24T08:14:32.570Z,0.00
2022-10-24T08:17:29.128Z,1.00
2022-10-24T08:20:26.784Z,2.00
2022-10-24T08:23:25.539Z,0.20
2022-10-24T08:26:24.467Z,0.00
2022-10-24T08:29:23.052Z,1.00
2022-10-24T08:32:20.307Z,0.80
2022-10-24T08:35:18.237Z,0.00
2022-10-24T08:38:15.263Z,1.00
2022-10-24T08:41:27.585Z,0.20
2022-10-24T08:44:35.891Z,0.00
2022-10-24T08:48:07.128Z,0.00
2022-10-24T08:51:38.516Z,1.00
2022-10-24T08:54:40.039Z,1.00
2022-10-24T08:57:37.160Z,0.00
2022-10-24T09:00:39.259Z,1.00
2022-10-24T09:03:55.556Z,0.00
2022-10-24T09:06:54.603Z,0.00
2022-10-24T09:09:52.912Z,0.00
2022-10-24T09:12:50.274Z,1.20
2022-10-24T09:15:47.132Z,0.00
2022-10-24T09:18:44.480Z,0.00
2022-10-24T09:21:42.049Z,0.40
2022-10-24T09:25:07.561Z,0.40
2022-10-24T09:28:05.282Z,0.60
2022-10-24T09:31:15.631Z,0.20
2022-10-24T09:34:12.394Z,0.00
2022-10-24T09:37:32.493Z,0.00
2022-10-24T09:40:33.968Z,0.00
2022-10-24T09:43:43.709Z,0.00
2022-10-24T09:46:48.050Z,0.00
2022-10-24T09:49:45.554Z,0.00
2022-10-24T09:52:42.473Z,0.00
2022-10-24T09:55:44.579Z,0.80
2022-10-24T09:58:41.481Z,0.00
2022-10-24T10:01:38.278Z,0.00
2022-10-24T10:04:35.565Z,0.00
2022-10-24T10:07:33.390Z,0.00
2022-10-24T10:10:32.816Z,0.00
2022-10-24T10:13:29.597Z,0.40
2022-10-24T10:16:36.914Z,0.00
2022-10-24T10:19:37.783Z,0.40
2022-10-24T10:22:34.801Z,0.00
2022-10-24T10:25:32.662Z,0.00
2022-10-24T10:28:29.535Z,0.80
2022-10-24T10:31:43.659Z,1.00
2022-10-24T10:34:41.283Z,0.40
2022-10-24T10:37:45.116Z,1.00
2022-10-24T10:40:50.294Z,0.40
2022-10-24T10:43:47.222Z,1.00
2022-10-24T10:46:47.917Z,0.00
2022-10-24T10:49:45.576Z,0.00
2022-10-24T10:52:49.013Z,0.60
2022-10-24T10:55:52.559Z,0.80
2022-10-24T10:59:24.707Z,0.00
2022-10-24T11:02:53.143Z,0.00
2022-10-24T11:06:17.356Z,0.00
2022-10-24T11:09:39.765Z,0.00
2022-10-24T11:12:40.879Z,0.00
2022-10-24T11:15:41.047Z,0.00
2022-10-24T11:18:40.574Z,1.00
2022-10-24T11:21:37.267Z,0.20
2022-10-24T11:24:41.699Z,0.00
2022-10-24T11:27:44.357Z,0.00
2022-10-24T11:31:12.285Z,0.00
2022-10-24T11:34:14.127Z,0.00
2022-10-24T11:37:34.524Z,0.00
2022-10-24T11:40:31.952Z,0.00
2022-10-24T11:43:37.866Z,0.00
2022-10-24T11:46:41.225Z,0.00
2022-10-24T11:49:40.922Z,1.00
2022-10-24T11:52:52.675Z,0.00
2022-10-24T11:56:16.755Z,0.00
2022-10-24T11:59:16.617Z,1.00
2022-10-24T12:02:52.717Z,0.00
2022-10-24T12:06:20.624Z,0.00
2022-10-24T12:09:30.847Z,0.00
2022-10-24T12:12:35.837Z,0.00
2022-10-24T12:16:05.562Z,0.00
2022-10-24T12:19:04.909Z,0.00
2022-10-24T12:22:01.949Z,0.00
2022-10-24T12:25:30.050Z,0.00
2022-10-24T12:28:27.386Z,0.00
2022-10-24T12:31:32.954Z,0.00
2022-10-24T12:34:31.439Z,0.00
2022-10-24T12:37:35.126Z,0.00
2022-10-24T12:40:55.705Z,0.00
2022-10-24T12:43:53.528Z,0.00
2022-10-24T12:46:50.517Z,0.00
2022-10-24T12:49:51.830Z,0.00
2022-10-24T12:53:00.787Z,0.00
2022-10-24T12:56:00.438Z,1.00
2022-10-24T12:58:59.079Z,0.00
2022-10-24T13:02:12.589Z,0.00
2022-10-24T13:05:34.626Z,0.00
2022-10-24T13:09:01.903Z,0.00
2022-10-24T13:12:01.608Z,0.00
2022-10-24T13:15:19.919Z,0.80
2022-10-24T13:18:25.512Z,0.00
2022-10-24T13:21:51.253Z,0.00
2022-10-24T13:24:48.238Z,0.00
2022-10-24T13:27:45.959Z,0.00
2022-10-24T13:30:44.767Z,0.00
2022-10-24T13:33:45.196Z,0.00
2022-10-24T13:36:43.294Z,0.00
2022-10-24T13:39:45.500Z,0.00
2022-10-24T13:42:49.720Z,0.40
2022-10-24T13:45:53.711Z,1.00
2022-10-24T13:48:50.709Z,0.80
2022-10-24T13:51:49.937Z,1.00
2022-10-24T13:54:48.250Z,1.00
2022-10-24T13:58:11.777Z,0.00
2022-10-24T14:01:25.105Z,0.00
2022-10-24T14:04:22.434Z,2.00
2022-10-24T14:07:21.560Z,1.00
2022-10-24T14:10:19.825Z,0.00
2022-10-24T14:13:19.947Z,1.00
2022-10-24T14:16:16.806Z,1.80
2022-10-24T14:19:27.101Z,1.00
2022-10-24T14:22:36.871Z,1.00
2022-10-24T14:25:37.555Z,1.00
2022-10-24T14:28:36.993Z,1.00
2022-10-24T14:31:37.580Z,1.00
2022-10-24T14:34:36.449Z,1.00
2022-10-24T14:37:35.852Z,1.00
2022-10-24T14:40:32.784Z,0.80
2022-10-24T14:43:29.926Z,1.00
2022-10-24T14:46:37.875Z,0.00
2022-10-24T14:49:37.916Z,1.00
2022-10-24T14:52:38.136Z,0.00
2022-10-24T14:55:35.826Z,0.00
2022-10-24T14:58:33.552Z,0.80
2022-10-24T15:01:30.830Z,1.00
2022-10-24T15:04:30.046Z,0.40
2022-10-24T15:07:30.137Z,0.00
2022-10-24T15:10:38.875Z,0.40
2022-10-24T15:13:48.019Z,1.00
2022-10-24T15:16:52.683Z,1.00
2022-10-24T15:19:49.595Z,1.00
2022-10-24T15:22:48.384Z,1.00
2022-10-24T15:25:45.898Z,0.80
2022-10-24T15:28:43.178Z,0.80
2022-10-24T15:31:44.698Z,0.00
2022-10-24T15:34:41.901Z,0.00
2022-10-24T15:37:38.727Z,1.00
2022-10-24T15:40:35.836Z,1.80
2022-10-24T15:43:32.869Z,1.00
2022-10-24T15:46:30.424Z,0.60
2022-10-24T15:49:29.123Z,0.80
2022-10-24T15:52:26.543Z,1.80
2022-10-24T15:55:27.949Z,2.00
2022-10-24T15:58:24.850Z,1.00
2022-10-24T16:01:31.114Z,1.00
2022-10-24T16:04:29.091Z,1.00
2022-10-24T16:07:26.680Z,1.60
2022-10-24T16:10:23.669Z,1.00
2022-10-24T16:13:21.493Z,1.00
2022-10-24T16:16:18.598Z,1.00
2022-10-24T16:19:15.560Z,1.00
2022-10-24T16:22:14.320Z,1.00
2022-10-24T16:25:17.689Z,2.00
2022-10-24T16:28:15.612Z,1.80
2022-10-24T16:31:13.191Z,0.60
2022-10-24T16:34:11.259Z,1.20
2022-10-24T16:37:08.611Z,1.00
2022-10-24T16:40:05.847Z,1.00
2022-10-24T16:43:03.188Z,0.20
2022-10-24T16:46:01.821Z,1.00
2022-10-24T16:48:58.988Z,1.20
2022-10-24T16:51:55.944Z,1.00
2022-10-24T16:54:53.494Z,1.00
2022-10-24T16:57:50.733Z,1.00
2022-10-24T17:00:47.825Z,1.00
2022-10-24T17:03:45.115Z,1.00
2022-10-24T17:06:41.650Z,2.40
2022-10-24T17:09:38.835Z,1.00
2022-10-24T17:12:36.040Z,1.40
2022-10-24T17:15:32.868Z,1.00
2022-10-24T17:18:29.995Z,0.20
2022-10-24T17:21:27.910Z,2.00
2022-10-24T17:24:28.095Z,1.80
2022-10-24T17:27:25.009Z,1.00
2022-10-24T17:30:24.327Z,1.00
2022-10-24T17:33:22.149Z,1.00
2022-10-24T17:36:21.378Z,1.40
2022-10-24T17:42:26.864Z,1.00
2022-10-24T17:45:24.930Z,2.00
2022-10-24T17:48:22.194Z,1.00
2022-10-24T17:51:21.261Z,2.00
2022-10-24T17:54:18.800Z,1.00
2022-10-24T17:57:16.050Z,1.20
2022-10-24T18:00:13.309Z,1.00
2022-10-24T18:03:10.536Z,1.00
2022-10-24T18:06:08.446Z,1.00
2022-10-24T18:09:06.152Z,1.20
2022-10-24T18:12:03.815Z,2.00
2022-10-24T18:15:00.537Z,2.00
2022-10-24T18:17:57.860Z,1.40
2022-10-24T18:21:05.450Z,0.40
2022-10-24T18:24:05.955Z,2.40
2022-10-24T18:27:02.925Z,1.00
2022-10-24T18:29:59.784Z,1.00
2022-10-24T18:32:57.275Z,1.00
2022-10-24T18:35:54.971Z,3.00
2022-10-24T18:38:54.032Z,3.00
2022-10-24T18:42:05.431Z,2.20
2022-10-24T18:45:04.218Z,1.00
2022-10-24T18:48:02.247Z,1.40
2022-10-24T18:50:59.979Z,1.60
2022-10-24T18:53:56.866Z,2.00
2022-10-24T18:56:54.037Z,2.00
2022-10-24T18:59:51.130Z,2.00
2022-10-24T19:03:06.437Z,3.00
2022-10-24T19:06:28.059Z,2.00
2022-10-24T19:09:25.408Z,1.40
2022-10-24T19:12:22.763Z,2.00
2022-10-24T19:15:19.873Z,1.60
2022-10-24T19:18:17.308Z,2.00
2022-10-24T19:21:14.818Z,3.60
2022-10-24T19:24:11.635Z,2.00
2022-10-24T19:27:09.439Z,3.00
2022-10-24T19:30:07.252Z,1.40
2022-10-24T19:33:04.028Z,1.80
2022-10-24T19:36:04.782Z,2.00
2022-10-24T19:39:02.051Z,1.40
2022-10-24T19:41:59.070Z,1.00
2022-10-24T19:44:56.604Z,1.20
2022-10-24T19:47:55.280Z,2.00
2022-10-24T19:50:52.729Z,2.00
2022-10-24T19:53:50.974Z,2.00
2022-10-24T19:56:49.438Z,1.80
2022-10-24T19:59:46.909Z,0.60
2022-10-24T20:02:43.934Z,2.00
2022-10-24T20:05:42.393Z,2.00
2022-10-24T20:08:39.931Z,2.00
2022-10-24T20:11:37.136Z,1.80
2022-10-24T20:14:34.101Z,2.00
2022-10-24T20:17:30.820Z,1.00
2022-10-24T20:20:28.031Z,1.00
2022-10-24T20:23:24.945Z,2.00
2022-10-24T20:26:23.481Z,1.00
2022-10-24T20:29:20.928Z,1.60
2022-10-24T20:32:17.778Z,2.60
2022-10-24T20:35:15.166Z,2.60
2022-10-24T20:38:11.860Z,2.00
2022-10-24T20:41:09.188Z,1.80
2022-10-24T20:44:07.131Z,2.20
2022-10-24T20:47:04.900Z,2.00
2022-10-24T20:50:01.841Z,3.00
2022-10-24T20:52:58.894Z,2.40
2022-10-24T20:55:55.942Z,3.00
2022-10-24T20:58:53.899Z,4.00
2022-10-24T21:01:50.775Z,7.60
2022-10-24T21:04:47.946Z,6.00
2022-10-24T21:07:48.710Z,4.00
2022-10-24T21:10:46.133Z,9.60
2022-10-24T21:13:43.767Z,8.80
2022-10-24T21:16:40.949Z,4.00
2022-10-24T21:19:38.264Z,6.00
2022-10-24T21:22:35.211Z,4.00
2022-10-24T21:25:31.970Z,2.20
2022-10-24T21:28:29.203Z,4.00
2022-10-24T21:31:25.962Z,3.20
2022-10-24T21:34:22.695Z,3.00
2022-10-24T21:37:20.295Z,3.00
2022-10-24T21:40:18.237Z,3.00
2022-10-24T21:43:15.034Z,3.60
2022-10-24T21:46:13.758Z,0.40
2022-10-24T21:49:10.930Z,3.80
2022-10-24T21:52:07.913Z,3.00
2022-10-24T21:55:05.046Z,2.00
2022-10-24T21:58:02.113Z,3.20
2022-10-24T22:00:59.152Z,3.00
2022-10-24T22:03:56.347Z,1.20
2022-10-24T22:06:53.029Z,2.00
2022-10-24T22:09:50.283Z,2.00
2022-10-24T22:12:46.900Z,2.60
2022-10-24T22:18:46.263Z,2.80
2022-10-24T22:21:47.717Z,2.60
2022-10-24T22:24:45.333Z,2.00
2022-10-24T22:27:42.135Z,1.00
2022-10-24T22:30:39.779Z,2.00
2022-10-24T22:33:38.297Z,3.00
2022-10-24T22:37:06.118Z,2.00
2022-10-24T22:40:03.623Z,2.60
2022-10-24T22:43:01.246Z,3.20
2022-10-24T22:46:05.278Z,1.20
2022-10-24T22:49:19.106Z,1.60
2022-10-24T22:52:16.210Z,3.00
2022-10-24T22:55:34.014Z,2.60
2022-10-24T22:58:31.283Z,2.40
2022-10-24T23:01:54.167Z,2.20
2022-10-24T23:04:53.952Z,3.20
2022-10-24T23:08:07.396Z,4.00
2022-10-24T23:11:04.700Z,2.00
2022-10-24T23:14:02.469Z,2.80
2022-10-24T23:17:00.475Z,6.00
2022-10-24T23:19:58.523Z,2.20
2022-10-24T23:23:08.917Z,3.00
2022-10-24T23:26:29.638Z,3.80
2022-10-24T23:29:31.045Z,4.00
2022-10-24T23:32:28.086Z,3.00
2022-10-24T23:35:25.298Z,3.00
2022-10-24T23:38:22.174Z,3.00
2022-10-24T23:41:19.368Z,3.80
2022-10-24T23:44:16.267Z,3.40
2022-10-24T23:47:20.890Z,5.20
2022-10-24T23:50:36.391Z,4.00
2022-10-24T23:53:48.969Z,4.00
2022-10-24T23:56:46.454Z,6.20
2022-10-24T23:59:43.287Z,3.00
